Flight Track Log - Related Links

Times and Time Zones

All times are in EDT time to prevent confusion due to time zone crossing. See the N743AE flight status page for this flight to view local times or setup timezone preferences in your user account.

Time Position Orientation Groundspeed Altitude Reporting Facility
EDT Latitude Longitude Course Direction KTS MPH feet Rate Location/Type
Fri 07:46:41 PM 34.5064 -91.4106 114° Southeast 186 214 5,400  Level Memphis Center
Fri 07:47:41 PM 34.4797 -91.3550 120° Southeast 198 228 6,500 1,200 Climbing Memphis Center
Fri 07:48:41 PM 34.4531 -91.2892 116° Southeast 198 228 7,800 1,300 Climbing Memphis Center
Fri 07:49:41 PM 34.4264 -91.2233 116° Southeast 203 234 9,100 1,250 Climbing Memphis Center
Fri 07:50:41 PM 34.3978 -91.1575 118° Southeast 213 245 10,300 1,100 Climbing Memphis Center
Fri 07:51:00 PM 34.4342 -91.1934 116° Southeast  Level Estimated
Fri 07:51:41 PM 34.3667 -91.0919 120° Southeast 218 251 11,300  Level Memphis Center
Fri 07:52:41 PM 34.3381 -91.0211 116° Southeast 224 258 12,500 1,100 Climbing Memphis Center
Fri 07:53:41 PM 34.3050 -90.9481 119° Southeast 229 264 13,500 1,000 Climbing Memphis Center
Fri 07:54:41 PM 34.2739 -90.8775 118° Southeast 236 272 14,500 1,000 Climbing Memphis Center
Fri 07:55:41 PM 34.2408 -90.8044 119° Southeast 236 272 15,500 800 Climbing Memphis Center
Fri 07:56:41 PM 34.2139 -90.7414 117° Southeast 246 283 16,100 750 Climbing Memphis Center
Fri 07:57:41 PM 34.1808 -90.6661 118° Southeast 246 283 17,000 900 Climbing Memphis Center
Fri 07:58:41 PM 34.1475 -90.5956 120° Southeast 246 283 17,900 850 Climbing Memphis Center
Fri 07:59:41 PM 34.1183 -90.5253 117° Southeast 246 283 18,700 850 Climbing Memphis Center
Fri 08:00:41 PM 34.0872 -90.4550 118° Southeast 246 283 19,600 850 Climbing Memphis Center
Fri 08:01:41 PM 34.0581 -90.3822 116° Southeast 246 283 20,400 800 Climbing Memphis Center
Fri 08:02:41 PM 34.0267 -90.3119 118° Southeast 240 276 21,200 700 Climbing Memphis Center
Fri 08:03:41 PM 33.9931 -90.2394 119° Southeast 246 283 21,800 650 Climbing Memphis Center
Fri 08:04:41 PM 33.9556 -90.1619 120° Southeast 246 283 22,500 650 Climbing Memphis Center
Fri 08:05:41 PM 33.9242 -90.0894 118° Southeast 246 283 23,100 650 Climbing Memphis Center
Fri 08:06:41 PM 33.8925 -90.0169 118° Southeast 246 283 23,800 550 Climbing Memphis Center
Fri 08:07:41 PM 33.8589 -89.9419 118° Southeast 246 283 24,200 450 Climbing Memphis Center
Fri 08:08:41 PM 33.8253 -89.8672 118° Southeast 251 289 24,700 400 Climbing Memphis Center
Fri 08:09:41 PM 33.7936 -89.7947 118° Southeast 246 283 25,000 150 Climbing Memphis Center
Fri 08:10:41 PM 33.7578 -89.7150 118° Southeast 252 290 25,000  Level Memphis Center
Fri 08:11:41 PM 33.7197 -89.6331 119° Southeast 263 303 25,000  Level Memphis Center
Fri 08:12:41 PM 33.6817 -89.5458 118° Southeast 274 315 25,000  Level Memphis Center
Fri 08:13:41 PM 33.6436 -89.4614 118° Southeast 281 323 25,000  Level Memphis Center
Fri 08:14:41 PM 33.6053 -89.3744 118° Southeast 287 330 25,000  Level Memphis Center
Fri 08:15:41 PM 33.5650 -89.2903 120° Southeast 287 330 25,000  Level Memphis Center
Fri 08:16:41 PM 33.5267 -89.2058 119° Southeast 287 330 25,000  Level Memphis Center
Fri 08:17:41 PM 33.4881 -89.1217 119° Southeast 287 330 25,000  Level Memphis Center
Fri 08:18:41 PM 33.4497 -89.0375 119° Southeast 287 330 25,000  Level Memphis Center
Fri 08:19:41 PM 33.4114 -88.9536 119° Southeast 287 330 25,000  Level Memphis Center
Fri 08:20:41 PM 33.3728 -88.8697 119° Southeast 287 330 25,000  Level Memphis Center
Fri 08:21:41 PM 33.3342 -88.7883 120° Southeast 287 330 25,000  Level Memphis Center
Fri 08:22:41 PM 33.2956 -88.7069 120° Southeast 287 330 25,000  Level Memphis Center
Fri 08:23:41 PM 33.2589 -88.6281 119° Southeast 287 330 25,000  Level Memphis Center
Fri 08:24:41 PM 33.2222 -88.5419 117° Southeast 287 330 25,000  Level Memphis Center
Fri 08:25:41 PM 33.1833 -88.4608 120° Southeast 287 330 25,000  Level Memphis Center
Fri 08:26:41 PM 33.1447 -88.3797 120° Southeast 287 330 25,000  Level Memphis Center
Fri 08:29:05 PM 33.0483 -88.1797 120° Southeast 292 336 25,000  Level Atlanta Center
Fri 08:30:05 PM 33.0114 -88.0989 119° Southeast 292 336 25,000  Level Atlanta Center
Fri 08:31:05 PM 32.9722 -88.0178 120° Southeast 292 336 25,000  Level Atlanta Center
Fri 08:32:05 PM 32.9356 -87.9319 117° Southeast 287 330 25,000  Level Atlanta Center
Fri 08:33:05 PM 32.9006 -87.8486 117° Southeast 287 330 25,000  Level Atlanta Center
Fri 08:34:05 PM 32.8569 -87.7678 123° Southeast 287 330 25,000  Level Atlanta Center
Fri 08:35:05 PM 32.8175 -87.6894 121° Southeast 287 330 25,000  Level Atlanta Center
Fri 08:36:05 PM 32.7781 -87.6111 121° Southeast 287 330 25,000  Level Atlanta Center
Fri 08:37:05 PM 32.7408 -87.5283 118° Southeast 287 330 25,000  Level Atlanta Center
Fri 08:38:05 PM 32.7036 -87.4478 119° Southeast 282 325 25,000  Level Atlanta Center
Fri 08:39:05 PM 32.6661 -87.3672 119° Southeast 282 325 25,000  Level Atlanta Center
Fri 08:40:05 PM 32.6222 -87.2869 123° Southeast 282 325 25,000  Level Atlanta Center
Fri 08:41:05 PM 32.5867 -87.2067 118° Southeast 282 325 25,000  Level Atlanta Center
Fri 08:42:05 PM 32.5469 -87.1264 120° Southeast 282 325 25,000  Level Atlanta Center
Fri 08:43:05 PM 32.5094 -87.0461 119° Southeast 282 325 25,000  Level Atlanta Center
Fri 08:44:05 PM 32.4694 -86.9661 121° Southeast 282 325 25,000  Level Atlanta Center
Fri 08:45:05 PM 32.4275 -86.8858 122° Southeast 282 325 25,000  Level Atlanta Center
Fri 08:46:05 PM 32.3897 -86.8086 120° Southeast 282 325 25,000  Level Atlanta Center
Fri 08:47:05 PM 32.3497 -86.7261 120° Southeast 282 325 25,000  Level Atlanta Center
Fri 08:48:05 PM 32.3200 -86.6614 119° Southeast 277 319 25,000  Level Atlanta Center
Fri 08:49:05 PM 32.2778 -86.5792 121° Southeast 277 319 25,000  Level Atlanta Center
Fri 08:50:05 PM 32.2419 -86.4969 117° Southeast 282 325 25,000 -150 Level Atlanta Center
Fri 08:51:05 PM 32.2017 -86.4197 122° Southeast 282 325 24,700 -400 Descending Atlanta Center
Fri 08:52:05 PM 32.1492 -86.3203 122° Southeast 294 338 24,200 -350 Descending Atlanta Center
Fri 08:53:05 PM 32.1028 -86.2333 122° Southeast 306 352 24,000 -363 Descending Atlanta Center
Fri 08:55:07 PM 32.0222 -86.0681 120° Southeast 305 351 23,100 -328 Descending Jacksonville Center
Fri 08:56:08 PM 31.9825 -85.9858 120° Southeast 299 344 23,000 -50 Descending Jacksonville Center
Fri 08:57:07 PM 31.9428 -85.9064 120° Southeast 294 338 23,000  Level Jacksonville Center
Fri 08:58:07 PM 31.9050 -85.8317 121° Southeast 283 326 23,000  Level Jacksonville Center
Fri 08:59:07 PM 31.8650 -85.7522 121° Southeast 283 326 23,000  Level Jacksonville Center
Fri 09:00:08 PM 31.8269 -85.6775 121° Southeast 278 320 23,000  Level Jacksonville Center
Fri 09:01:08 PM 31.7889 -85.6031 121° Southeast 278 320 23,000  Level Jacksonville Center
Fri 09:02:08 PM 31.7356 -85.5600 146° Southeast 252 290 23,000  Level Jacksonville Center
Fri 09:03:07 PM 31.6822 -85.5169 146° Southeast 232 267 23,000  Level Jacksonville Center
Fri 09:04:07 PM 31.6289 -85.4717 144° Southeast 237 273 23,000  Level Jacksonville Center
Fri 09:05:08 PM 31.5753 -85.4336 149° Southeast 237 273 23,000  Level Jacksonville Center
Fri 09:06:08 PM 31.5261 -85.3811 138° Southeast 232 267 23,000  Level Jacksonville Center
Fri 09:07:08 PM 31.4728 -85.3406 147° Southeast 238 274 23,000  Level Jacksonville Center
Fri 09:08:08 PM 31.4169 -85.3100 155° Southeast 227 261 23,000  Level Jacksonville Center
Fri 09:09:08 PM 31.3656 -85.2600 140° Southeast 222 255 23,000  Level Jacksonville Center
Fri 09:10:08 PM 31.3231 -85.2006 130° Southeast 235 270 23,000  Level Jacksonville Center
Fri 09:11:08 PM 31.2931 -85.1194 113° Southeast 248 285 23,000 -50 Level Jacksonville Center
Fri 09:12:08 PM 31.2842 -85.0342 97° East 248 285 22,900 -550 Descending Jacksonville Center
Fri 09:13:08 PM 31.2792 -84.9467 94° East 258 297 21,900 -1,200 Descending Jacksonville Center
Fri 09:14:08 PM 31.2553 -84.8781 112° Southeast 247 284 20,500 -1,400 Descending Jacksonville Center
Fri 09:15:08 PM 31.2439 -84.8000 100° East 241 277 19,100 -1,350 Descending Jacksonville Center
Fri 09:16:08 PM 31.2619 -84.7203 75° East 236 272 17,800 -1,200 Descending Jacksonville Center
Fri 09:17:08 PM 31.2461 -84.6469 104° East 236 272 16,700 -1,210 Descending Jacksonville Center
Fri 09:18:07 PM 31.2158 -84.5858 120° Southeast 221 254 15,400 -1,350 Descending Jacksonville Center
Fri 09:19:08 PM 31.1894 -84.5269 118° Southeast 214 246 14,000 -1,462 Descending Jacksonville Center
Fri 09:19:25 PM 31.1811 -84.5097 119° Southeast 208 239 13,500 -1,220 Descending Jacksonville Center
Fri 09:20:07 PM 31.1631 -84.4683 117° Southeast 209 241 12,800 -1,000 Descending Jacksonville Center
Fri 09:20:25 PM 31.1569 -84.4536 116° Southeast 203 234 12,500 -984 Descending Jacksonville Center
Fri 09:21:08 PM 31.1406 -84.4119 115° Southeast 203 234 11,800 -1,180 Descending Jacksonville Center
Fri 09:21:26 PM 31.1303 -84.3950 125° Southeast 194 223 11,300 -1,627 Descending Jacksonville Center
Fri 09:22:07 PM 31.1100 -84.3631 127° Southeast 198 228 10,200 -1,672 Descending Jacksonville Center
Fri 09:22:27 PM 31.1017 -84.3531 134° Southeast 179 206 9,600 -1,600 Descending Jacksonville Center
Fri 09:23:07 PM 31.0769 -84.3261 137° Southeast 178 205 8,600 -1,500 Descending Jacksonville Center
Fri 09:23:27 PM 31.0644 -84.3139 140° Southeast 175 201 8,100 -1,377 Descending Jacksonville Center
Fri 09:24:08 PM 31.0439 -84.2869 132° Southeast 172 198 7,200 -1,180 Descending Jacksonville Center
Fri 09:24:28 PM 31.0317 -84.2744 139° Southeast 174 200 6,900 -900 Descending Jacksonville Center
Fri 09:25:08 PM 31.0111 -84.2378 123° Southeast 172 198 6,300 -787 Descending Jacksonville Center
Fri 09:25:29 PM 31.0050 -84.2208 113° Southeast 185 213 6,100 -600 Descending Jacksonville Center
Fri 09:26:08 PM 30.9950 -84.1844 108° East 177 204 5,700 -900 Descending Jacksonville Center
Fri 09:26:29 PM 30.9889 -84.1672 112° Southeast 187 215 5,200 -1,500 Descending Jacksonville Center
Fri 09:27:08 PM 30.9767 -84.1236 108° East 184 212 4,200 -1,574 Descending Jacksonville Center
Fri 09:27:30 PM 30.9686 -84.1039 115° Southeast 205 236 3,600 -600 Descending Jacksonville Center
Fri 09:28:08 PM 30.9564 -84.0747 116° Southeast 191 220 3,600 245 Level Jacksonville Center
Fri 09:29:08 PM 30.9358 -84.0189 113° Southeast 191 220 4,000 400 Climbing Jacksonville Center
Fri 09:31:00 PM 30.9018 -83.8811 103° East  Level Estimated

Login

Don't have an account? Register now (free) for customized features, flight alerts, and more!